createdAt,value
2023-01-25T00:01:05.370Z,3.75
2023-01-25T00:02:06.953Z,3.75
2023-01-25T00:03:08.520Z,3.73
2023-01-25T00:04:10.060Z,3.66
2023-01-25T00:05:11.533Z,3.59
2023-01-25T00:06:13.278Z,3.53
2023-01-25T00:07:14.702Z,3.56
2023-01-25T00:08:16.782Z,3.56
2023-01-25T00:09:18.922Z,3.56
2023-01-25T00:10:20.435Z,3.54
2023-01-25T00:11:22.212Z,3.52
2023-01-25T00:12:23.636Z,3.52
2023-01-25T00:13:25.117Z,3.53
2023-01-25T00:14:26.633Z,3.57
2023-01-25T00:15:28.053Z,3.59
2023-01-25T00:16:29.953Z,3.62
2023-01-25T00:17:31.455Z,3.65
2023-01-25T00:18:32.887Z,3.65
2023-01-25T00:19:34.315Z,3.60
2023-01-25T00:20:35.732Z,3.62
2023-01-25T00:21:38.078Z,3.63
2023-01-25T00:22:39.654Z,3.63
2023-01-25T00:23:41.090Z,3.70
2023-01-25T00:24:42.541Z,3.68
2023-01-25T00:25:44.073Z,3.68
2023-01-25T00:26:45.834Z,3.68
2023-01-25T00:27:47.324Z,3.68
2023-01-25T00:28:50.987Z,3.58
2023-01-25T00:29:52.432Z,3.56
2023-01-25T00:30:53.831Z,3.54
2023-01-25T00:32:02.487Z,3.56
2023-01-25T00:33:27.022Z,3.57
2023-01-25T00:34:29.772Z,3.60
2023-01-25T00:35:32.544Z,3.59
2023-01-25T00:36:40.823Z,3.58
2023-01-25T00:37:46.499Z,3.59
2023-01-25T00:38:47.975Z,3.61
2023-01-25T00:39:49.505Z,3.60
2023-01-25T00:40:50.933Z,3.59
2023-01-25T00:41:52.864Z,3.56
2023-01-25T00:42:54.295Z,3.52
2023-01-25T00:43:56.232Z,3.57
2023-01-25T00:44:57.705Z,3.53
2023-01-25T00:46:02.429Z,3.54
2023-01-25T00:47:05.608Z,3.56
2023-01-25T00:48:06.948Z,3.57
2023-01-25T00:49:22.696Z,3.59
2023-01-25T00:50:24.168Z,3.59
2023-01-25T00:51:26.376Z,3.59
2023-01-25T00:52:28.658Z,3.58
2023-01-25T00:53:30.115Z,3.59
2023-01-25T00:54:31.711Z,3.58
2023-01-25T00:55:33.161Z,3.58
2023-01-25T00:56:34.907Z,3.60
2023-01-25T00:57:36.336Z,3.58
2023-01-25T00:58:37.738Z,3.59
2023-01-25T00:59:39.215Z,3.60
2023-01-25T01:00:40.615Z,3.56
2023-01-25T01:01:42.721Z,3.56
2023-01-25T01:02:44.162Z,3.55
2023-01-25T01:03:45.560Z,3.57
2023-01-25T01:04:47.018Z,3.64
2023-01-25T01:05:48.472Z,3.63
2023-01-25T01:06:49.866Z,3.61
2023-01-25T01:07:51.340Z,3.53
2023-01-25T01:08:52.743Z,3.52
2023-01-25T01:09:54.243Z,3.51
2023-01-25T01:11:00.755Z,3.49
2023-01-25T01:12:02.348Z,3.50
2023-01-25T01:13:03.946Z,3.49
2023-01-25T01:14:05.350Z,3.49
2023-01-25T01:15:07.811Z,3.50
2023-01-25T01:16:12.557Z,3.52
2023-01-25T01:17:14.350Z,3.53
2023-01-25T01:18:15.795Z,3.55
2023-01-25T01:19:17.393Z,3.55
2023-01-25T01:20:18.946Z,3.56
2023-01-25T01:21:20.735Z,3.58
2023-01-25T01:22:22.200Z,3.56
2023-01-25T01:23:23.590Z,3.53
2023-01-25T01:24:25.126Z,3.54
2023-01-25T01:25:26.547Z,3.52
2023-01-25T01:26:27.962Z,3.48
2023-01-25T01:27:29.362Z,3.51
2023-01-25T01:28:32.445Z,3.50
2023-01-25T01:29:33.793Z,3.51
2023-01-25T01:30:36.124Z,3.53
2023-01-25T01:31:37.927Z,3.52
2023-01-25T01:32:39.630Z,3.54
2023-01-25T01:33:41.312Z,3.49
2023-01-25T01:34:42.725Z,3.49
2023-01-25T01:35:46.731Z,3.49
2023-01-25T01:36:48.537Z,3.51
2023-01-25T01:37:49.980Z,3.41
2023-01-25T01:38:51.670Z,3.36
2023-01-25T01:39:53.070Z,3.28
2023-01-25T01:40:54.460Z,3.29
2023-01-25T01:42:05.631Z,3.32
2023-01-25T01:43:26.606Z,3.30
2023-01-25T01:44:44.208Z,3.36
2023-01-25T01:45:50.528Z,3.38
2023-01-25T01:46:55.829Z,3.36
2023-01-25T01:47:57.638Z,3.33
2023-01-25T01:49:03.176Z,3.36
2023-01-25T01:50:18.752Z,3.39
2023-01-25T01:51:42.667Z,3.39
2023-01-25T01:52:44.183Z,3.39
2023-01-25T01:53:50.857Z,3.38
2023-01-25T01:55:01.443Z,3.42
2023-01-25T01:56:07.717Z,3.42
2023-01-25T01:57:16.681Z,3.41
2023-01-25T01:58:18.604Z,3.40
2023-01-25T01:59:22.077Z,3.37
2023-01-25T02:00:30.510Z,3.36
2023-01-25T02:01:33.118Z,3.38
2023-01-25T02:02:35.073Z,3.39
2023-01-25T02:03:36.643Z,3.39
2023-01-25T02:04:38.128Z,3.38
2023-01-25T02:05:57.813Z,3.40
2023-01-25T02:07:08.459Z,3.39
2023-01-25T02:08:13.274Z,3.40
2023-01-25T02:09:19.673Z,3.32
2023-01-25T02:10:23.032Z,3.32
2023-01-25T02:11:26.945Z,3.34
2023-01-25T02:12:29.223Z,3.39
2023-01-25T02:13:31.906Z,3.40
2023-01-25T02:14:34.650Z,3.44
2023-01-25T02:15:40.919Z,3.38
2023-01-25T02:16:43.484Z,3.32
2023-01-25T02:17:44.931Z,3.32
2023-01-25T02:18:46.379Z,3.33
2023-01-25T02:19:58.354Z,3.37
2023-01-25T02:21:01.139Z,3.39
2023-01-25T02:22:08.041Z,3.38
2023-01-25T02:23:18.821Z,3.36
2023-01-25T02:24:28.568Z,3.35
2023-01-25T02:25:30.313Z,3.35
2023-01-25T02:26:31.920Z,3.38
2023-01-25T02:27:37.214Z,3.36
2023-01-25T02:28:44.286Z,3.36
2023-01-25T02:29:46.089Z,3.32
2023-01-25T02:30:47.907Z,3.34
2023-01-25T02:31:53.004Z,3.41
2023-01-25T02:32:54.503Z,3.39
2023-01-25T02:33:56.046Z,3.40
2023-01-25T02:34:57.549Z,3.37
2023-01-25T02:36:06.735Z,3.36
2023-01-25T02:37:09.931Z,3.33
2023-01-25T02:38:15.167Z,3.33
2023-01-25T02:39:20.418Z,3.32
2023-01-25T02:40:21.972Z,3.31
2023-01-25T02:41:34.170Z,3.32
2023-01-25T02:42:36.405Z,3.26
2023-01-25T02:43:38.043Z,3.28
2023-01-25T02:44:39.628Z,3.29
2023-01-25T02:45:41.242Z,3.26
2023-01-25T02:46:44.996Z,3.26
2023-01-25T02:47:48.648Z,3.27
2023-01-25T02:48:50.083Z,3.25
2023-01-25T02:49:51.505Z,3.26
2023-01-25T02:50:52.987Z,3.25
2023-01-25T02:51:58.975Z,3.28
2023-01-25T02:53:00.397Z,3.26
2023-01-25T02:54:04.984Z,3.26
2023-01-25T02:55:07.329Z,3.25
2023-01-25T02:56:08.890Z,3.28
2023-01-25T02:57:10.655Z,3.28
2023-01-25T02:58:12.119Z,3.24
2023-01-25T02:59:14.030Z,3.26
2023-01-25T03:00:15.720Z,3.24
2023-01-25T03:01:17.643Z,3.23
2023-01-25T03:02:19.162Z,3.23
2023-01-25T03:03:20.890Z,3.25
2023-01-25T03:04:22.431Z,3.30
2023-01-25T03:05:24.016Z,3.32
2023-01-25T03:06:26.176Z,3.34
2023-01-25T03:07:27.606Z,3.32
2023-01-25T03:08:29.118Z,3.34
2023-01-25T03:09:30.561Z,3.36
2023-01-25T03:10:32.093Z,3.33
2023-01-25T03:11:34.322Z,3.32
2023-01-25T03:12:35.742Z,3.34
2023-01-25T03:13:37.761Z,3.37
2023-01-25T03:14:39.187Z,3.37
2023-01-25T03:15:40.628Z,3.36
2023-01-25T03:16:42.092Z,3.38
2023-01-25T03:17:43.580Z,3.35
2023-01-25T03:18:45.295Z,3.36
2023-01-25T03:19:46.763Z,3.34
2023-01-25T03:20:48.178Z,3.34
2023-01-25T03:21:49.765Z,3.34
2023-01-25T03:22:51.278Z,3.32
2023-01-25T03:23:58.742Z,3.29
2023-01-25T03:25:00.285Z,3.26
2023-01-25T03:26:19.241Z,3.31
2023-01-25T03:27:20.739Z,3.31
2023-01-25T03:28:22.166Z,3.29
2023-01-25T03:29:23.720Z,3.30
2023-01-25T03:30:25.208Z,3.30
2023-01-25T03:31:26.834Z,3.30
2023-01-25T03:32:28.628Z,3.32
2023-01-25T03:33:30.387Z,3.33
2023-01-25T03:34:31.845Z,3.30
2023-01-25T03:35:33.309Z,3.32
2023-01-25T03:36:34.761Z,3.29
2023-01-25T03:37:36.588Z,3.26
2023-01-25T03:38:38.064Z,3.29
2023-01-25T03:39:39.588Z,3.31
2023-01-25T03:40:41.056Z,3.31
2023-01-25T03:41:42.487Z,3.30
2023-01-25T03:42:44.414Z,3.28
2023-01-25T03:43:45.823Z,3.22
2023-01-25T03:44:47.264Z,3.25
2023-01-25T03:45:57.132Z,3.26
2023-01-25T03:46:59.004Z,3.28
2023-01-25T03:48:00.461Z,3.25
2023-01-25T03:49:01.887Z,3.23
2023-01-25T03:50:03.450Z,3.23
2023-01-25T03:51:05.056Z,3.22
2023-01-25T03:52:06.537Z,3.26
2023-01-25T03:53:17.062Z,3.26
2023-01-25T03:54:18.491Z,3.27
2023-01-25T03:55:19.886Z,3.31
2023-01-25T03:56:21.405Z,3.31
2023-01-25T03:57:23.317Z,3.29
2023-01-25T03:58:24.919Z,3.26
2023-01-25T03:59:26.380Z,3.26
2023-01-25T04:00:27.860Z,3.29
2023-01-25T04:01:29.439Z,3.29
2023-01-25T04:02:30.932Z,3.31
2023-01-25T04:03:33.353Z,3.25
2023-01-25T04:04:35.822Z,3.24
2023-01-25T04:05:37.281Z,3.19
2023-01-25T04:06:39.074Z,3.20
2023-01-25T04:07:40.654Z,3.26
2023-01-25T04:08:42.126Z,3.31
2023-01-25T04:09:43.540Z,3.29
2023-01-25T04:10:45.675Z,3.28
2023-01-25T04:11:50.372Z,3.30
2023-01-25T04:12:51.784Z,3.34
2023-01-25T04:13:53.429Z,3.31
2023-01-25T04:14:55.076Z,3.35
2023-01-25T04:15:56.502Z,3.34
2023-01-25T04:16:58.251Z,3.29
2023-01-25T04:17:59.771Z,3.24
2023-01-25T04:19:01.245Z,3.14
2023-01-25T04:20:02.814Z,3.13
2023-01-25T04:21:04.744Z,3.13
2023-01-25T04:22:06.263Z,3.13
2023-01-25T04:23:08.433Z,3.17
2023-01-25T04:24:09.883Z,3.16
2023-01-25T04:25:11.733Z,3.10
2023-01-25T04:26:14.508Z,3.12
2023-01-25T04:27:16.271Z,3.13
2023-01-25T04:28:17.687Z,3.03
2023-01-25T04:29:23.689Z,2.99
2023-01-25T04:30:27.558Z,3.01
2023-01-25T04:31:29.379Z,2.98
2023-01-25T04:32:31.039Z,2.98
2023-01-25T04:33:33.476Z,3.00
2023-01-25T04:34:34.893Z,3.00
2023-01-25T04:35:36.305Z,3.01
2023-01-25T04:36:37.819Z,3.01
2023-01-25T04:37:39.256Z,3.06
2023-01-25T04:38:42.183Z,3.04
2023-01-25T04:39:43.561Z,3.03
2023-01-25T04:40:45.743Z,3.00
2023-01-25T04:41:47.488Z,3.05
2023-01-25T04:42:48.898Z,3.05
2023-01-25T04:43:50.288Z,3.00
2023-01-25T04:44:51.779Z,2.95
2023-01-25T04:45:53.309Z,2.95
2023-01-25T04:46:54.743Z,2.93
2023-01-25T04:48:09.931Z,2.86
2023-01-25T04:49:11.391Z,2.79
2023-01-25T04:50:12.913Z,2.75
2023-01-25T04:51:15.021Z,2.76
2023-01-25T04:52:16.430Z,2.78
2023-01-25T04:53:17.831Z,2.81
2023-01-25T04:54:19.232Z,2.81
2023-01-25T04:55:21.226Z,2.78
2023-01-25T04:56:22.932Z,2.86
2023-01-25T04:57:24.669Z,2.89
2023-01-25T04:58:26.276Z,2.91
2023-01-25T04:59:27.718Z,2.91
2023-01-25T05:00:30.287Z,2.92
2023-01-25T05:01:33.551Z,2.94
2023-01-25T05:02:35.106Z,3.01
2023-01-25T05:03:36.559Z,2.98
2023-01-25T05:04:37.996Z,2.91
2023-01-25T05:05:39.413Z,2.90
2023-01-25T05:06:41.217Z,2.89
2023-01-25T05:07:42.742Z,2.81
2023-01-25T05:08:44.218Z,2.82
2023-01-25T05:09:45.627Z,2.81
2023-01-25T05:10:47.145Z,2.84
2023-01-25T05:11:48.885Z,2.85
2023-01-25T05:12:50.423Z,2.83
2023-01-25T05:13:52.142Z,2.83
2023-01-25T05:14:53.562Z,2.86
2023-01-25T05:15:56.732Z,2.86
2023-01-25T05:16:58.245Z,2.87
2023-01-25T05:17:59.758Z,2.86
2023-01-25T05:19:01.198Z,2.88
2023-01-25T05:20:03.501Z,2.90
2023-01-25T05:21:05.072Z,2.91
2023-01-25T05:22:07.935Z,2.91
2023-01-25T05:23:09.375Z,2.92
2023-01-25T05:24:10.822Z,2.92
2023-01-25T05:25:32.305Z,2.94
2023-01-25T05:26:52.808Z,2.95
2023-01-25T05:27:54.213Z,2.92
2023-01-25T05:28:55.642Z,2.94
2023-01-25T05:29:57.218Z,2.98
2023-01-25T05:30:58.767Z,3.01
2023-01-25T05:32:00.559Z,3.02
2023-01-25T05:33:02.230Z,3.01
2023-01-25T05:34:03.650Z,3.00
2023-01-25T05:35:05.272Z,3.02
2023-01-25T05:36:07.145Z,3.01
2023-01-25T05:37:11.744Z,3.01
2023-01-25T05:38:13.174Z,2.95
2023-01-25T05:39:14.614Z,2.95
2023-01-25T05:40:16.536Z,2.90
2023-01-25T05:41:17.953Z,2.91
2023-01-25T05:42:19.920Z,2.87
2023-01-25T05:43:23.629Z,2.92
2023-01-25T05:44:25.164Z,2.90
2023-01-25T05:45:26.866Z,2.91
2023-01-25T05:46:28.753Z,2.92
2023-01-25T05:47:30.722Z,2.96
2023-01-25T05:48:32.189Z,2.96
2023-01-25T05:49:33.672Z,2.93
2023-01-25T05:50:35.153Z,2.95
2023-01-25T05:51:38.322Z,2.99
2023-01-25T05:52:39.910Z,2.98
2023-01-25T05:53:41.328Z,2.96
2023-01-25T05:54:42.828Z,2.96
2023-01-25T05:55:44.279Z,2.96
2023-01-25T05:56:46.129Z,2.98
2023-01-25T05:57:47.602Z,2.95
2023-01-25T05:58:56.279Z,2.93
2023-01-25T05:59:57.744Z,2.90
2023-01-25T06:01:05.874Z,2.90
2023-01-25T06:02:07.775Z,2.91
2023-01-25T06:03:09.526Z,2.91
2023-01-25T06:04:15.411Z,2.97
2023-01-25T06:05:16.902Z,3.01
2023-01-25T06:06:18.671Z,3.01
2023-01-25T06:07:20.195Z,3.11
2023-01-25T06:08:21.693Z,3.06
2023-01-25T06:09:23.563Z,3.00
2023-01-25T06:10:25.099Z,2.98
2023-01-25T06:11:26.546Z,2.95
2023-01-25T06:12:29.467Z,2.95
2023-01-25T06:13:31.561Z,2.93
2023-01-25T06:14:33.826Z,2.94
2023-01-25T06:15:35.484Z,2.96
2023-01-25T06:16:36.908Z,2.92
2023-01-25T06:17:38.771Z,2.88
2023-01-25T06:18:40.225Z,2.89
2023-01-25T06:19:41.725Z,2.94
2023-01-25T06:20:43.149Z,2.97
2023-01-25T06:21:44.560Z,2.97
2023-01-25T06:22:52.733Z,2.97
2023-01-25T06:23:54.435Z,2.97
2023-01-25T06:24:55.947Z,3.01
2023-01-25T06:26:02.689Z,2.99
2023-01-25T06:27:04.121Z,3.01
2023-01-25T06:28:05.730Z,3.04
2023-01-25T06:29:07.534Z,3.02
2023-01-25T06:30:09.818Z,3.01
2023-01-25T06:31:14.486Z,3.02
2023-01-25T06:32:16.001Z,3.10
2023-01-25T06:33:17.463Z,3.01
2023-01-25T06:34:18.964Z,3.00
2023-01-25T06:35:20.768Z,2.94
2023-01-25T06:36:23.149Z,2.93
2023-01-25T06:37:24.682Z,2.85
2023-01-25T06:38:26.082Z,2.80
2023-01-25T06:39:27.500Z,2.74
2023-01-25T06:40:29.456Z,2.74
2023-01-25T06:41:31.434Z,2.73
2023-01-25T06:42:32.884Z,2.87
2023-01-25T06:43:35.256Z,2.79
2023-01-25T06:44:36.775Z,2.74
2023-01-25T06:45:38.350Z,2.68
2023-01-25T06:46:40.149Z,2.63
2023-01-25T06:47:41.899Z,2.64
2023-01-25T06:48:43.398Z,2.64
2023-01-25T06:49:44.815Z,2.60
2023-01-25T06:50:46.224Z,2.60
2023-01-25T06:51:47.702Z,2.58
2023-01-25T06:52:55.866Z,2.47
2023-01-25T06:53:57.305Z,2.54
2023-01-25T06:54:58.741Z,2.56
2023-01-25T06:56:02.112Z,2.56
2023-01-25T06:57:03.943Z,2.57
2023-01-25T06:58:05.366Z,2.53
2023-01-25T06:59:06.872Z,2.67
2023-01-25T07:00:09.047Z,2.64
2023-01-25T07:01:14.534Z,2.60
2023-01-25T07:02:16.172Z,2.60
2023-01-25T07:03:17.585Z,2.47
2023-01-25T07:04:19.094Z,2.35
2023-01-25T07:05:20.571Z,2.32
2023-01-25T07:06:22.897Z,2.30
2023-01-25T07:07:24.333Z,2.31
2023-01-25T07:08:25.913Z,2.30
2023-01-25T07:09:27.362Z,2.30
2023-01-25T07:10:28.890Z,2.31
2023-01-25T07:11:30.862Z,2.35
2023-01-25T07:12:32.594Z,2.42
2023-01-25T07:13:34.706Z,2.46
2023-01-25T07:14:36.156Z,2.52
2023-01-25T07:15:37.668Z,2.50
2023-01-25T07:16:39.467Z,2.51
2023-01-25T07:17:40.926Z,2.52
2023-01-25T07:18:42.742Z,2.56
2023-01-25T07:19:44.169Z,2.58
2023-01-25T07:20:45.575Z,2.55
2023-01-25T07:21:47.269Z,2.56
2023-01-25T07:22:48.710Z,2.61
2023-01-25T07:23:51.497Z,2.59
2023-01-25T07:24:53.908Z,2.54
2023-01-25T07:25:55.343Z,2.60
2023-01-25T07:26:57.241Z,2.64
2023-01-25T07:27:58.761Z,2.65
2023-01-25T07:29:00.484Z,2.66
2023-01-25T07:30:03.112Z,2.67
2023-01-25T07:31:08.181Z,2.67
2023-01-25T07:32:12.917Z,2.71
2023-01-25T07:33:14.375Z,2.72
2023-01-25T07:34:15.867Z,2.75
2023-01-25T07:35:17.347Z,2.77
2023-01-25T07:36:20.083Z,2.80
2023-01-25T07:37:21.658Z,2.81
2023-01-25T07:38:23.100Z,2.82
2023-01-25T07:39:24.544Z,2.80
2023-01-25T07:40:26.105Z,2.77
2023-01-25T07:41:27.762Z,2.77
2023-01-25T07:42:29.293Z,2.73
2023-01-25T07:43:31.089Z,2.74
2023-01-25T07:44:32.527Z,2.75
2023-01-25T07:45:34.079Z,2.76
2023-01-25T07:46:35.945Z,2.74
2023-01-25T07:47:38.042Z,2.71
2023-01-25T07:48:41.402Z,2.75
2023-01-25T07:49:42.853Z,2.75
2023-01-25T07:50:46.685Z,2.82
2023-01-25T07:51:48.622Z,2.80
2023-01-25T07:52:50.095Z,2.80
2023-01-25T07:53:54.741Z,2.80
2023-01-25T07:54:56.179Z,2.78
2023-01-25T07:55:58.815Z,2.81
2023-01-25T07:57:00.538Z,2.81
2023-01-25T07:58:02.168Z,2.79
2023-01-25T07:59:04.226Z,2.82
2023-01-25T08:00:07.221Z,2.80
2023-01-25T08:01:11.145Z,2.84
2023-01-25T08:02:13.142Z,2.87
2023-01-25T08:03:15.540Z,2.86
2023-01-25T08:04:17.018Z,2.88
2023-01-25T08:05:18.918Z,2.81
2023-01-25T08:06:27.429Z,2.78
2023-01-25T08:07:29.444Z,2.69
2023-01-25T08:08:35.795Z,2.63
2023-01-25T08:09:37.636Z,2.55
2023-01-25T08:10:39.941Z,2.53
2023-01-25T08:11:42.356Z,2.61
2023-01-25T08:12:46.938Z,2.66
2023-01-25T08:13:49.809Z,2.72
2023-01-25T08:14:51.524Z,2.74
2023-01-25T08:15:54.885Z,2.73
2023-01-25T08:16:56.365Z,2.65
2023-01-25T08:18:01.013Z,2.64
2023-01-25T08:19:03.820Z,2.70
2023-01-25T08:20:06.119Z,2.69
2023-01-25T08:21:07.856Z,2.71
2023-01-25T08:22:09.722Z,2.69
2023-01-25T08:23:11.181Z,2.75
2023-01-25T08:24:12.947Z,2.78
2023-01-25T08:25:14.423Z,2.82
2023-01-25T08:26:17.129Z,2.84
2023-01-25T08:27:18.647Z,2.78
2023-01-25T08:28:20.202Z,2.81
2023-01-25T08:29:21.784Z,2.80
2023-01-25T08:30:23.239Z,2.81
2023-01-25T08:31:27.218Z,2.80
2023-01-25T08:32:29.016Z,2.78
2023-01-25T08:33:30.462Z,2.77
2023-01-25T08:34:32.379Z,2.79
2023-01-25T08:35:35.687Z,2.79
2023-01-25T08:36:37.520Z,2.78
2023-01-25T08:37:39.294Z,2.68
2023-01-25T08:38:40.768Z,2.63
2023-01-25T08:39:42.219Z,2.62
2023-01-25T08:40:44.989Z,2.68
2023-01-25T08:41:46.462Z,2.72
2023-01-25T08:42:48.820Z,2.72
2023-01-25T08:43:52.345Z,2.74
2023-01-25T08:44:53.878Z,2.71
2023-01-25T08:45:58.484Z,2.61
2023-01-25T08:46:59.930Z,2.52
2023-01-25T08:48:01.513Z,2.61
2023-01-25T08:49:03.738Z,2.66
2023-01-25T08:50:05.865Z,2.55
2023-01-25T08:51:15.596Z,2.62
2023-01-25T08:52:17.052Z,2.67
2023-01-25T08:53:19.023Z,2.68
2023-01-25T08:54:20.440Z,2.71
2023-01-25T08:55:21.944Z,2.76
2023-01-25T08:56:23.521Z,2.78
2023-01-25T08:57:25.092Z,2.79
2023-01-25T08:58:26.993Z,2.79
2023-01-25T08:59:28.436Z,2.82
2023-01-25T09:00:29.927Z,2.83
2023-01-25T09:01:31.488Z,2.88
2023-01-25T09:02:33.143Z,2.85
2023-01-25T09:03:36.831Z,2.84
2023-01-25T09:04:38.301Z,2.86
2023-01-25T09:05:39.961Z,2.86
2023-01-25T09:06:41.540Z,2.92
2023-01-25T09:07:42.987Z,2.93
2023-01-25T09:08:44.820Z,2.78
2023-01-25T09:09:46.281Z,2.82
2023-01-25T09:10:47.696Z,2.81
2023-01-25T09:11:49.285Z,2.86
2023-01-25T09:12:50.716Z,2.89
2023-01-25T09:13:52.575Z,2.88
2023-01-25T09:14:54.050Z,2.87
2023-01-25T09:16:00.828Z,2.87
2023-01-25T09:17:02.272Z,2.85
2023-01-25T09:18:03.802Z,2.84
2023-01-25T09:19:05.622Z,2.82
2023-01-25T09:20:08.433Z,2.84
2023-01-25T09:21:15.721Z,2.82
2023-01-25T09:22:17.148Z,2.84
2023-01-25T09:23:23.089Z,2.87
2023-01-25T09:24:24.598Z,3.03
2023-01-25T09:25:26.106Z,2.98
2023-01-25T09:26:27.585Z,2.95
2023-01-25T09:27:29.018Z,2.83
2023-01-25T09:28:32.450Z,2.83
2023-01-25T09:29:33.894Z,2.81
2023-01-25T09:30:46.559Z,2.82
2023-01-25T09:31:50.186Z,2.82
2023-01-25T09:32:51.788Z,2.85
2023-01-25T09:33:53.604Z,2.84
2023-01-25T09:34:55.011Z,2.84
2023-01-25T09:35:56.705Z,2.80
2023-01-25T09:36:58.259Z,2.71
2023-01-25T09:37:59.764Z,2.69
2023-01-25T09:39:01.803Z,2.67
2023-01-25T09:40:05.069Z,2.67
2023-01-25T09:41:48.420Z,2.67
2023-01-25T09:43:16.267Z,2.66
2023-01-25T09:44:47.609Z,2.66
2023-01-25T09:45:49.064Z,2.70
2023-01-25T09:46:54.115Z,2.72
2023-01-25T09:48:10.876Z,2.75
2023-01-25T09:49:15.775Z,2.71
2023-01-25T09:50:34.324Z,2.59
2023-01-25T09:51:59.858Z,2.53
2023-01-25T09:53:22.004Z,2.49
2023-01-25T09:54:25.118Z,2.52
2023-01-25T09:55:28.251Z,2.54
2023-01-25T09:56:35.358Z,2.56
2023-01-25T09:57:40.787Z,2.59
2023-01-25T09:58:49.329Z,2.66
2023-01-25T09:59:52.948Z,2.64
2023-01-25T10:01:36.591Z,2.63
2023-01-25T10:02:43.594Z,2.64
2023-01-25T10:03:57.419Z,2.66
2023-01-25T10:05:07.830Z,2.70
2023-01-25T10:06:13.635Z,2.76
2023-01-25T10:07:36.554Z,2.79
2023-01-25T10:09:03.082Z,2.82
2023-01-25T10:10:11.571Z,2.82
2023-01-25T10:11:24.869Z,2.80
2023-01-25T10:12:33.326Z,2.81
2023-01-25T10:13:35.123Z,2.87
2023-01-25T10:14:37.105Z,2.90
2023-01-25T10:15:48.172Z,2.89
2023-01-25T10:17:03.977Z,2.93
2023-01-25T10:18:25.395Z,2.91
2023-01-25T10:19:33.032Z,2.94
2023-01-25T10:20:37.204Z,2.94
2023-01-25T10:21:43.413Z,2.96
2023-01-25T10:22:51.373Z,2.92
2023-01-25T10:24:11.711Z,2.95
2023-01-25T10:25:24.775Z,2.93
2023-01-25T10:26:36.005Z,2.95
2023-01-25T10:27:56.064Z,2.92
2023-01-25T10:29:09.421Z,2.93
2023-01-25T10:30:19.918Z,2.95
2023-01-25T10:31:37.728Z,2.96
2023-01-25T10:32:51.057Z,2.96
2023-01-25T10:33:57.318Z,2.98
2023-01-25T10:35:12.529Z,2.92
2023-01-25T10:36:18.188Z,2.95
2023-01-25T10:37:26.715Z,2.98
2023-01-25T10:38:34.097Z,2.99
2023-01-25T10:39:41.356Z,2.93
2023-01-25T10:40:48.563Z,2.95
2023-01-25T10:41:56.011Z,2.94
2023-01-25T10:43:05.873Z,2.88
2023-01-25T10:44:24.365Z,2.89
2023-01-25T10:45:25.862Z,2.91
2023-01-25T10:46:28.373Z,2.86
2023-01-25T10:47:35.519Z,2.87
2023-01-25T10:48:39.439Z,2.86
2023-01-25T10:49:50.758Z,2.84
2023-01-25T10:50:54.596Z,2.93
2023-01-25T10:51:56.269Z,2.96
2023-01-25T10:52:58.799Z,2.95
2023-01-25T10:54:05.632Z,2.96
2023-01-25T10:55:18.434Z,2.96
2023-01-25T10:56:24.528Z,3.01
2023-01-25T10:57:26.271Z,3.03
2023-01-25T10:58:51.019Z,3.02
2023-01-25T10:59:53.597Z,2.95
2023-01-25T11:00:55.325Z,2.95
2023-01-25T11:02:16.749Z,2.75
2023-01-25T11:03:22.194Z,2.56
2023-01-25T11:04:35.654Z,2.42
2023-01-25T11:05:39.415Z,2.50
2023-01-25T11:06:50.324Z,2.56
2023-01-25T11:07:51.880Z,2.48
2023-01-25T11:08:53.420Z,2.49
2023-01-25T11:09:54.905Z,2.55
2023-01-25T11:10:59.439Z,2.67
2023-01-25T11:12:05.784Z,2.81
2023-01-25T11:13:13.467Z,2.82
2023-01-25T11:14:18.820Z,2.80
2023-01-25T11:15:25.569Z,2.76
2023-01-25T11:16:40.242Z,2.81
2023-01-25T11:17:41.705Z,2.77
2023-01-25T11:18:52.497Z,2.70
2023-01-25T11:20:21.126Z,2.66
2023-01-25T11:21:25.923Z,2.67
2023-01-25T11:22:28.711Z,2.70
2023-01-25T11:23:32.247Z,2.69
2023-01-25T11:24:36.379Z,2.70
2023-01-25T11:25:37.952Z,2.73
2023-01-25T11:26:41.207Z,2.72
2023-01-25T11:27:42.628Z,2.78
2023-01-25T11:28:46.096Z,2.80
2023-01-25T11:30:10.542Z,2.79
2023-01-25T11:31:14.364Z,2.81
2023-01-25T11:32:21.571Z,2.80
2023-01-25T11:33:26.537Z,2.90
2023-01-25T11:34:30.281Z,2.88
2023-01-25T11:35:33.373Z,2.85
2023-01-25T11:36:48.139Z,2.84
2023-01-25T11:38:14.157Z,2.95
2023-01-25T11:39:27.704Z,2.96
2023-01-25T11:40:42.305Z,2.91
2023-01-25T11:42:13.517Z,2.74
2023-01-25T11:43:21.034Z,2.44
2023-01-25T11:44:57.447Z,2.48
2023-01-25T11:46:22.045Z,2.53
2023-01-25T11:47:32.608Z,2.55
2023-01-25T11:49:18.085Z,2.44
2023-01-25T11:50:30.247Z,2.46
2023-01-25T11:51:41.716Z,2.38
2023-01-25T11:53:11.592Z,2.46
2023-01-25T11:54:39.534Z,2.54
2023-01-25T11:56:03.184Z,2.66
2023-01-25T11:57:07.510Z,2.68
2023-01-25T11:58:33.431Z,2.63
2023-01-25T12:00:01.754Z,2.61
2023-01-25T12:01:32.295Z,2.67
2023-01-25T12:02:53.826Z,2.67
2023-01-25T12:04:07.261Z,2.67
2023-01-25T12:05:43.921Z,2.70
2023-01-25T12:07:05.633Z,2.72
2023-01-25T12:08:34.293Z,2.67
2023-01-25T12:09:56.748Z,2.71
2023-01-25T12:11:07.589Z,2.77
2023-01-25T12:12:16.911Z,2.87
2023-01-25T12:13:31.167Z,2.82
2023-01-25T12:14:57.291Z,2.88
2023-01-25T12:16:13.893Z,2.93
2023-01-25T12:17:21.160Z,2.84
2023-01-25T12:18:51.486Z,2.80
2023-01-25T12:20:13.565Z,2.76
2023-01-25T12:21:41.383Z,2.66
2023-01-25T12:22:54.975Z,2.56
2023-01-25T12:24:18.371Z,2.53
2023-01-25T12:25:41.238Z,2.47
2023-01-25T12:26:45.872Z,2.47
2023-01-25T12:28:02.630Z,2.48
2023-01-25T12:29:29.623Z,2.54
2023-01-25T12:30:40.200Z,2.55
2023-01-25T12:32:09.987Z,2.55
2023-01-25T12:33:22.603Z,2.58
2023-01-25T12:34:35.806Z,2.58
2023-01-25T12:35:41.268Z,2.60
2023-01-25T12:36:48.527Z,2.61
2023-01-25T12:37:55.105Z,2.63
2023-01-25T12:39:03.587Z,2.57
2023-01-25T12:40:12.664Z,2.63
2023-01-25T12:41:14.198Z,2.69
2023-01-25T12:42:29.769Z,2.71
2023-01-25T12:43:44.969Z,2.76
2023-01-25T12:44:53.013Z,2.76
2023-01-25T12:45:57.241Z,2.80
2023-01-25T12:47:10.580Z,2.77
2023-01-25T12:48:26.933Z,2.81
2023-01-25T12:49:44.430Z,2.83
2023-01-25T12:50:56.017Z,2.86
2023-01-25T12:52:01.638Z,2.83
2023-01-25T12:53:06.995Z,2.79
2023-01-25T12:54:30.519Z,2.81
2023-01-25T12:55:33.413Z,2.80
2023-01-25T12:56:44.025Z,2.83
2023-01-25T12:57:45.931Z,2.88
2023-01-25T12:58:55.340Z,2.87
2023-01-25T13:00:33.589Z,2.99
2023-01-25T13:01:51.283Z,2.95
2023-01-25T13:03:16.827Z,2.89
2023-01-25T13:04:33.307Z,2.89
2023-01-25T13:05:46.815Z,2.85
2023-01-25T13:07:03.842Z,2.88
2023-01-25T13:08:32.072Z,2.90
2023-01-25T13:09:55.747Z,2.93
2023-01-25T13:11:19.458Z,2.88
2023-01-25T13:12:21.299Z,2.83
2023-01-25T13:13:25.881Z,2.87
2023-01-25T13:14:36.746Z,2.80
2023-01-25T13:15:43.334Z,2.81
2023-01-25T13:17:08.558Z,2.83
2023-01-25T13:18:29.328Z,2.88
2023-01-25T13:19:30.665Z,2.88
2023-01-25T13:20:41.197Z,2.86
2023-01-25T13:21:47.647Z,2.81
2023-01-25T13:22:49.355Z,2.81
2023-01-25T13:24:12.006Z,2.83
2023-01-25T13:25:16.251Z,2.82
2023-01-25T13:26:20.729Z,2.87
2023-01-25T13:27:31.034Z,2.86
2023-01-25T13:28:46.567Z,2.87
2023-01-25T13:29:55.137Z,2.88
2023-01-25T13:30:56.703Z,2.89
2023-01-25T13:31:59.786Z,2.89
2023-01-25T13:33:07.014Z,2.90
2023-01-25T13:34:10.190Z,2.69
2023-01-25T13:35:30.365Z,2.54
2023-01-25T13:36:40.965Z,2.57
2023-01-25T13:37:42.945Z,2.61
2023-01-25T13:38:44.459Z,2.67
2023-01-25T13:40:07.557Z,2.74
2023-01-25T13:41:16.804Z,2.77
2023-01-25T13:42:29.579Z,2.74
2023-01-25T13:43:31.076Z,2.76
2023-01-25T13:44:35.323Z,2.78
2023-01-25T13:45:40.699Z,2.78
2023-01-25T13:46:42.221Z,2.83
2023-01-25T13:47:58.897Z,2.73
2023-01-25T13:49:05.901Z,2.76
2023-01-25T13:50:13.144Z,2.72
2023-01-25T13:51:18.291Z,2.76
2023-01-25T13:52:23.082Z,2.85
2023-01-25T13:53:33.190Z,2.89
2023-01-25T13:54:42.903Z,2.87
2023-01-25T13:55:50.688Z,2.61
2023-01-25T13:57:14.268Z,2.54
2023-01-25T13:58:20.368Z,2.56
2023-01-25T13:59:27.066Z,2.60
2023-01-25T14:00:28.789Z,2.66
2023-01-25T14:01:32.122Z,2.70
2023-01-25T14:02:35.835Z,2.74
2023-01-25T14:03:49.051Z,2.79
2023-01-25T14:04:51.757Z,2.77
2023-01-25T14:05:56.361Z,2.80
2023-01-25T14:07:00.740Z,2.80
2023-01-25T14:08:02.894Z,2.79
2023-01-25T14:09:16.633Z,2.81
2023-01-25T14:10:23.631Z,2.81
2023-01-25T14:11:28.926Z,2.81
2023-01-25T14:12:39.693Z,2.84
2023-01-25T14:13:55.964Z,2.87
2023-01-25T14:14:57.419Z,2.89
2023-01-25T14:16:05.266Z,2.89
2023-01-25T14:17:09.946Z,2.91
2023-01-25T14:18:20.201Z,2.87
2023-01-25T14:19:29.831Z,2.85
2023-01-25T14:20:31.371Z,2.87
2023-01-25T14:21:32.801Z,2.88
2023-01-25T14:22:35.753Z,2.92
2023-01-25T14:23:37.499Z,2.95
2023-01-25T14:24:39.053Z,2.95
2023-01-25T14:25:40.927Z,2.93
2023-01-25T14:26:46.133Z,2.93
2023-01-25T14:27:51.791Z,2.88
2023-01-25T14:29:01.319Z,2.76
2023-01-25T14:30:05.555Z,2.71
2023-01-25T14:31:20.239Z,2.71